Terminal Aerodrome Forecast
Issued by NWS

Home | Current Version | Previous Version | Text Only | Print | Product List | Glossary On
Versions: 1 2 3 4 5 6 7 8 9 10 11 12 13 14 15 16 17 18 19 20 21 22 23 24
000
FTUS42 KFFC 261726
TAFRYY
TAF
KRYY 261726Z 2618/2718 19009KT P6SM BKN035
     FM262000 19010KT P6SM VCSH BKN035
      TEMPO 2620/2623 6SM SHRA
     FM270100 24004KT P6SM SCT040
     FM270500 VRB03KT P6SM BKN120
     FM270900 VRB03KT 6SM BR BKN015
     FM271600 21010KT P6SM BKN035=

USA.gov is the U.S. government's official web portal to all federal, state and local government web resources and services.